ΕΜΥ, Εθνική Μετεωρολογική Υπηρεσία - Δελτία Καιρού, Προγνώσεις

ΑΕΡΟΝΑΥΤΙΛΙΑ

GREEK AIRPORTS CODES

LGKP 151250Z 29018KT CAVOK 23/16 Q1017=

EUROPEAN AIRPORTS CODES

LFPO 151230Z 25019KT 9999 BKN039 BKN049 BKN068 13/05 Q1013TEMPO -RA=